Time;durP1;ratioP1;P1;durP2;ratioP2;P2;SDS_P1;SDS_P2;PMS_P1;PMS_P2;Temp;Humidity;BMP_temperature;BMP_pressure;BME280_temperature;BME280_humidity;BME280_pressure;Samples;Min_cycle;Max_cycle;Signal;HPM_P1;HPM_P2
2021/08/19 00:02:17;;;;;;;2.53;2.23;;;16.10;99.90;;;;;;5097740;28;20283;-45
2021/08/19 00:04:43;;;;;;;2.63;2.23;;;16.10;99.90;;;;;;5098374;28;20287;-45
2021/08/19 00:07:08;;;;;;;2.40;2.20;;;16.00;99.90;;;;;;5097530;28;20497;-46
2021/08/19 00:09:37;;;;;;;2.57;2.37;;;16.10;99.90;;;;;;5097996;28;20411;-45
2021/08/19 00:12:08;;;;;;;3.33;3.00;;;16.10;99.90;;;;;;5097717;28;20191;-45
2021/08/19 00:14:37;;;;;;;2.50;2.30;;;16.10;99.90;;;;;;5098165;28;20406;-45
2021/08/19 00:17:07;;;;;;;2.43;2.23;;;16.00;99.90;;;;;;5097302;28;20858;-45
2021/08/19 00:19:34;;;;;;;2.07;1.87;;;16.00;99.90;;;;;;5098513;28;20446;-45
2021/08/19 00:22:03;;;;;;;2.43;2.23;;;16.00;99.90;;;;;;5101532;28;20464;-45
2021/08/19 00:24:29;;;;;;;2.13;1.93;;;16.00;99.90;;;;;;5106372;28;20523;-46
2021/08/19 00:26:55;;;;;;;2.40;2.20;;;16.00;99.90;;;;;;5122237;28;20413;-45
2021/08/19 00:29:20;;;;;;;2.83;2.53;;;16.00;99.90;;;;;;5121790;28;20190;-46
2021/08/19 00:31:46;;;;;;;2.30;2.10;;;16.00;99.90;;;;;;5122089;28;20260;-45
2021/08/19 00:34:12;;;;;;;2.20;2.00;;;16.00;99.90;;;;;;5122219;28;20573;-45
2021/08/19 00:36:37;;;;;;;2.70;2.07;;;16.00;99.90;;;;;;5121806;28;20431;-46
2021/08/19 00:39:04;;;;;;;3.00;1.80;;;16.00;99.90;;;;;;5121757;28;20176;-45
2021/08/19 00:41:31;;;;;;;3.73;1.80;;;16.00;99.90;;;;;;5122140;28;20646;-46
2021/08/19 00:43:59;;;;;;;2.40;1.77;;;16.00;99.90;;;;;;5121742;28;20504;-46
2021/08/19 00:46:28;;;;;;;5.57;2.87;;;16.00;99.90;;;;;;5104185;28;20482;-45
2021/08/19 00:48:58;;;;;;;3.47;1.90;;;16.00;99.90;;;;;;5121639;28;20757;-45
2021/08/19 00:51:26;;;;;;;2.10;1.90;;;16.00;99.90;;;;;;5121400;28;20421;-45
2021/08/19 00:53:51;;;;;;;2.13;1.93;;;16.00;99.90;;;;;;5121679;28;20706;-45
2021/08/19 00:56:17;;;;;;;2.70;2.50;;;15.90;99.90;;;;;;5120964;28;20450;-46
2021/08/19 00:58:43;;;;;;;2.67;1.93;;;15.90;99.90;;;;;;5121569;28;20176;-46
2021/08/19 01:01:10;;;;;;;2.73;2.13;;;15.90;99.90;;;;;;5121457;28;20465;-45
2021/08/19 01:03:35;;;;;;;2.53;2.33;;;15.90;99.90;;;;;;5121497;28;20845;-46
2021/08/19 01:06:01;;;;;;;2.37;2.17;;;15.90;99.90;;;;;;5121104;28;20429;-45
2021/08/19 01:08:26;;;;;;;2.10;1.90;;;16.00;99.90;;;;;;5121429;28;20179;-45
2021/08/19 01:10:53;;;;;;;2.33;2.13;;;15.90;99.90;;;;;;5116548;28;20443;-45
2021/08/19 01:13:19;;;;;;;3.53;2.37;;;15.90;99.90;;;;;;5117519;28;20179;-46
2021/08/19 01:15:44;;;;;;;3.37;3.07;;;15.90;99.90;;;;;;5121102;28;20417;-45
2021/08/19 01:18:10;;;;;;;2.73;2.37;;;15.90;99.90;;;;;;5120747;28;20263;-46
2021/08/19 01:20:36;;;;;;;4.77;2.73;;;15.90;99.90;;;;;;5121155;28;20174;-45
2021/08/19 01:23:02;;;;;;;2.53;2.33;;;15.80;99.90;;;;;;5119721;28;20384;-45
2021/08/19 01:25:29;;;;;;;2.27;2.07;;;15.80;99.90;;;;;;5102912;28;20786;-45
2021/08/19 01:27:55;;;;;;;1.80;1.63;;;15.80;99.90;;;;;;5120628;28;20409;-45
2021/08/19 01:30:22;;;;;;;2.47;2.27;;;15.80;99.90;;;;;;5102713;28;20425;-45
2021/08/19 01:32:48;;;;;;;3.63;2.03;;;15.80;99.90;;;;;;5120757;28;20711;-46
2021/08/19 01:35:21;;;;;;;2.10;1.90;;;15.80;99.90;;;;;;5120780;28;20424;-45
2021/08/19 01:37:47;;;;;;;3.30;2.60;;;15.80;99.90;;;;;;5120835;28;20190;-45
2021/08/19 01:40:14;;;;;;;1.97;1.80;;;15.80;99.90;;;;;;5120542;28;20819;-46
2021/08/19 01:42:41;;;;;;;2.30;2.10;;;15.80;99.90;;;;;;5120757;28;20465;-45
2021/08/19 01:45:07;;;;;;;3.17;2.07;;;15.80;99.90;;;;;;5120524;28;20494;-45
2021/08/19 01:47:33;;;;;;;2.53;1.60;;;15.80;99.90;;;;;;5120665;28;20429;-45
2021/08/19 01:49:59;;;;;;;2.40;2.10;;;15.80;99.90;;;;;;5120145;28;20525;-45
2021/08/19 01:52:24;;;;;;;2.53;1.77;;;15.90;99.90;;;;;;5120506;28;20168;-45
2021/08/19 01:54:50;;;;;;;1.70;1.60;;;15.90;99.90;;;;;;5120417;28;20520;-45
2021/08/19 01:57:16;;;;;;;3.57;1.63;;;15.80;99.90;;;;;;5120481;28;20542;-45
2021/08/19 01:59:41;;;;;;;4.07;2.00;;;15.80;99.90;;;;;;5119966;28;20180;-45
2021/08/19 02:02:07;;;;;;;3.40;2.17;;;15.80;99.90;;;;;;5120220;28;20294;-45
2021/08/19 02:04:33;;;;;;;1.93;1.70;;;15.80;99.90;;;;;;5120447;28;20559;-43
2021/08/19 02:06:58;;;;;;;3.40;1.87;;;15.90;99.90;;;;;;5120004;28;20554;-43
2021/08/19 02:09:24;;;;;;;1.63;1.47;;;15.90;99.90;;;;;;5119945;28;20180;-43
2021/08/19 02:11:50;;;;;;;2.03;1.83;;;15.80;99.90;;;;;;5119975;28;20180;-43
2021/08/19 02:14:16;;;;;;;2.23;2.03;;;15.90;99.90;;;;;;5120265;28;20445;-43
2021/08/19 02:16:41;;;;;;;2.43;1.87;;;15.80;99.90;;;;;;5102140;28;20200;-44
2021/08/19 02:19:07;;;;;;;2.27;2.07;;;15.80;99.90;;;;;;5119693;28;20190;-44
2021/08/19 02:21:33;;;;;;;2.37;2.17;;;15.80;99.90;;;;;;5101811;28;20204;-44
2021/08/19 02:23:58;;;;;;;2.00;1.80;;;15.80;99.90;;;;;;5119418;28;20797;-44
2021/08/19 02:26:24;;;;;;;2.43;2.17;;;15.70;99.90;;;;;;5119614;28;20592;-44
2021/08/19 02:28:50;;;;;;;2.20;1.70;;;15.80;99.90;;;;;;5119621;28;20176;-44
2021/08/19 02:31:16;;;;;;;4.20;1.83;;;15.70;99.90;;;;;;5119912;28;20262;-44
2021/08/19 02:33:41;;;;;;;1.93;1.73;;;15.70;99.90;;;;;;5119307;28;20421;-44
2021/08/19 02:36:07;;;;;;;2.00;1.80;;;15.70;99.90;;;;;;5119458;28;20429;-44
2021/08/19 02:38:33;;;;;;;2.23;2.00;;;15.70;99.90;;;;;;5119330;28;20477;-44
2021/08/19 02:40:59;;;;;;;1.87;1.70;;;15.70;99.90;;;;;;5118784;28;20427;-44
2021/08/19 02:43:24;;;;;;;2.37;1.90;;;15.70;99.90;;;;;;5118672;28;20410;-44
2021/08/19 02:45:50;;;;;;;1.73;1.63;;;15.80;99.90;;;;;;5114937;28;20177;-44
2021/08/19 02:48:16;;;;;;;2.70;1.87;;;15.80;99.90;;;;;;5115015;28;20297;-44
2021/08/19 02:50:41;;;;;;;2.43;2.00;;;15.70;99.90;;;;;;5118008;28;20340;-44
2021/08/19 02:53:07;;;;;;;2.50;2.03;;;15.80;99.90;;;;;;5117192;28;20422;-44
2021/08/19 02:55:33;;;;;;;2.80;2.50;;;15.80;99.90;;;;;;5117436;28;20172;-44
2021/08/19 02:57:58;;;;;;;2.13;1.80;;;15.80;99.90;;;;;;5117268;28;20179;-44
2021/08/19 03:00:24;;;;;;;2.40;2.20;;;15.80;99.90;;;;;;5117092;28;20496;-44
2021/08/19 03:02:50;;;;;;;2.20;2.00;;;15.70;99.90;;;;;;5116910;28;20464;-44
2021/08/19 03:05:16;;;;;;;2.03;1.87;;;15.70;99.90;;;;;;5117009;28;20409;-44
2021/08/19 03:07:42;;;;;;;1.90;1.70;;;15.70;99.90;;;;;;5118299;28;20176;-44
2021/08/19 03:10:08;;;;;;;3.90;2.10;;;15.70;99.90;;;;;;5118216;28;20474;-44
2021/08/19 03:12:34;;;;;;;2.77;2.57;;;15.70;99.90;;;;;;5118470;28;20451;-44
2021/08/19 03:14:59;;;;;;;2.30;2.03;;;15.70;99.90;;;;;;5118287;28;20401;-44
2021/08/19 03:17:27;;;;;;;3.53;2.00;;;15.70;99.90;;;;;;5118582;28;20175;-42
2021/08/19 03:19:52;;;;;;;1.93;1.73;;;15.70;99.90;;;;;;5118551;28;20175;-44
2021/08/19 03:22:19;;;;;;;2.90;2.13;;;15.60;99.90;;;;;;5115262;28;20476;-44
2021/08/19 03:24:45;;;;;;;2.20;1.77;;;15.60;99.90;;;;;;5115989;28;20465;-44
2021/08/19 03:27:13;;;;;;;4.17;1.97;;;15.60;99.90;;;;;;5117495;28;20918;-44
2021/08/19 03:29:38;;;;;;;1.93;1.83;;;15.60;99.90;;;;;;5117615;28;20422;-44
2021/08/19 03:32:04;;;;;;;1.90;1.70;;;15.60;99.90;;;;;;5117577;28;20422;-44
2021/08/19 03:34:31;;;;;;;2.00;1.80;;;15.60;99.90;;;;;;5100424;28;20179;-44
2021/08/19 03:36:56;;;;;;;2.57;2.37;;;15.60;99.90;;;;;;5118490;28;20417;-44
2021/08/19 03:39:25;;;;;;;2.00;1.80;;;15.60;99.90;;;;;;5118534;28;20704;-44
2021/08/19 03:41:51;;;;;;;2.00;1.80;;;15.60;99.90;;;;;;5117987;28;20199;-44
2021/08/19 03:44:17;;;;;;;2.40;2.07;;;15.60;99.90;;;;;;5115926;28;20421;-44
2021/08/19 03:46:43;;;;;;;2.30;2.00;;;15.70;99.90;;;;;;5113375;28;20183;-44
2021/08/19 03:49:09;;;;;;;1.80;1.63;;;15.60;99.90;;;;;;5116672;28;20438;-44
2021/08/19 03:51:35;;;;;;;3.03;1.70;;;15.70;99.90;;;;;;5116701;28;20503;-44
2021/08/19 03:54:01;;;;;;;2.80;2.07;;;15.60;99.90;;;;;;5115969;28;20280;-44
2021/08/19 03:56:32;;;;;;;3.33;2.10;;;15.60;99.90;;;;;;5116738;28;20776;-44
2021/08/19 03:58:58;;;;;;;2.27;1.97;;;15.60;99.90;;;;;;5097963;28;20425;-44
2021/08/19 04:01:24;;;;;;;2.30;2.00;;;15.60;99.90;;;;;;5116322;28;20874;-44
2021/08/19 04:03:51;;;;;;;2.10;1.90;;;15.60;99.90;;;;;;5117579;28;20244;-45
2021/08/19 04:06:17;;;;;;;1.97;1.77;;;15.60;99.90;;;;;;5115956;28;20733;-45
2021/08/19 04:08:43;;;;;;;3.00;2.13;;;15.60;99.90;;;;;;5117419;28;20861;-45
2021/08/19 04:11:08;;;;;;;2.43;2.03;;;15.60;99.90;;;;;;5117627;28;20508;-46
2021/08/19 04:13:34;;;;;;;2.07;1.87;;;15.70;99.90;;;;;;5117211;28;20630;-46
2021/08/19 04:16:00;;;;;;;2.03;1.80;;;15.60;99.90;;;;;;5098371;28;20172;-46
2021/08/19 04:18:26;;;;;;;2.53;2.03;;;15.70;99.90;;;;;;5117417;28;20405;-46
2021/08/19 04:20:51;;;;;;;2.20;2.00;;;15.70;99.90;;;;;;5117017;28;20164;-46
2021/08/19 04:23:17;;;;;;;1.93;1.67;;;15.70;99.90;;;;;;5117442;28;20298;-46
2021/08/19 04:25:43;;;;;;;2.53;2.03;;;15.60;99.90;;;;;;5117246;28;20254;-46
2021/08/19 04:28:08;;;;;;;2.00;1.80;;;15.60;99.90;;;;;;5114505;28;20464;-46
2021/08/19 04:30:34;;;;;;;2.53;2.33;;;15.60;99.90;;;;;;5115206;28;20469;-46
2021/08/19 04:33:00;;;;;;;3.23;1.70;;;15.50;99.90;;;;;;5114962;28;20188;-46
2021/08/19 04:35:31;;;;;;;2.47;2.27;;;15.50;99.90;;;;;;5116210;28;20175;-45
2021/08/19 04:37:57;;;;;;;1.83;1.70;;;15.50;99.90;;;;;;5116499;28;20509;-46
2021/08/19 04:40:24;;;;;;;3.17;1.73;;;15.50;99.90;;;;;;5116257;28;20570;-46
2021/08/19 04:42:50;;;;;;;2.60;1.73;;;15.50;99.90;;;;;;5116570;28;20492;-46
2021/08/19 04:45:15;;;;;;;2.07;1.80;;;15.50;99.90;;;;;;5110581;28;20401;-46
2021/08/19 04:47:41;;;;;;;2.23;1.77;;;15.50;99.90;;;;;;5116409;28;20752;-45
2021/08/19 04:50:07;;;;;;;1.97;1.70;;;15.50;99.90;;;;;;5117228;28;20180;-46
2021/08/19 04:52:33;;;;;;;1.80;1.70;;;15.50;99.90;;;;;;5116593;28;20183;-46
2021/08/19 04:54:59;;;;;;;3.40;2.00;;;15.60;99.90;;;;;;5115227;28;20425;-46
2021/08/19 04:57:25;;;;;;;2.33;1.73;;;15.50;99.90;;;;;;5116450;28;20425;-46
2021/08/19 04:59:50;;;;;;;2.13;1.53;;;15.60;99.90;;;;;;5095522;28;20188;-46
2021/08/19 05:02:16;;;;;;;2.13;1.90;;;15.60;99.90;;;;;;5116391;28;20226;-46
2021/08/19 05:04:42;;;;;;;3.60;1.70;;;15.60;99.90;;;;;;5095298;28;20772;-46
2021/08/19 05:07:07;;;;;;;2.30;1.90;;;15.60;99.90;;;;;;5117207;28;20531;-46
2021/08/19 05:09:33;;;;;;;1.50;1.40;;;15.70;99.90;;;;;;5120880;28;20172;-46
2021/08/19 05:11:59;;;;;;;2.60;2.10;;;15.70;99.90;;;;;;5120892;28;20214;-46
2021/08/19 05:14:25;;;;;;;2.70;2.20;;;15.70;99.90;;;;;;5120841;28;20191;-46
2021/08/19 05:16:50;;;;;;;2.27;2.00;;;15.70;99.90;;;;;;5102632;28;20515;-48
2021/08/19 05:19:16;;;;;;;2.60;2.07;;;15.70;99.90;;;;;;5120417;28;20176;-46
2021/08/19 05:21:43;;;;;;;2.17;1.97;;;15.70;99.90;;;;;;5120492;28;20219;-46
2021/08/19 05:24:09;;;;;;;2.50;2.30;;;15.80;99.90;;;;;;5121000;28;20187;-46
2021/08/19 05:26:35;;;;;;;2.57;2.23;;;15.80;99.90;;;;;;5121186;28;20421;-46
2021/08/19 05:29:00;;;;;;;2.37;1.90;;;15.80;99.90;;;;;;5102920;28;20450;-45
2021/08/19 05:31:26;;;;;;;2.23;1.97;;;15.80;99.90;;;;;;5120456;28;20179;-45
2021/08/19 05:33:54;;;;;;;2.60;2.40;;;15.80;99.90;;;;;;5120545;28;20332;-46
2021/08/19 05:36:20;;;;;;;4.00;1.90;;;15.70;99.90;;;;;;5119843;28;20827;-45
2021/08/19 05:38:46;;;;;;;2.60;2.40;;;15.70;99.90;;;;;;5119646;28;20483;-46
2021/08/19 05:41:12;;;;;;;2.53;2.33;;;15.70;99.90;;;;;;5118045;28;20836;-45
2021/08/19 05:43:37;;;;;;;3.20;2.17;;;15.80;99.90;;;;;;5117715;28;20453;-45
2021/08/19 05:46:04;;;;;;;2.87;2.20;;;15.80;99.90;;;;;;5118733;28;20860;-46
2021/08/19 05:48:29;;;;;;;4.00;2.27;;;15.70;99.90;;;;;;5099887;28;20241;-46
2021/08/19 05:50:55;;;;;;;2.80;1.90;;;15.80;99.90;;;;;;5116404;28;20478;-46
2021/08/19 05:53:21;;;;;;;2.20;2.00;;;15.80;99.90;;;;;;5116143;28;20179;-46
2021/08/19 05:55:46;;;;;;;3.10;2.30;;;15.80;99.90;;;;;;5117143;28;20417;-46
2021/08/19 05:58:13;;;;;;;2.60;2.07;;;15.90;99.90;;;;;;5117815;28;20182;-46
2021/08/19 06:00:40;;;;;;;2.43;2.23;;;16.00;99.90;;;;;;5118366;28;20449;-46
2021/08/19 06:03:06;;;;;;;2.93;2.30;;;16.00;99.90;;;;;;5119172;28;20465;-44
2021/08/19 06:05:31;;;;;;;2.73;2.00;;;16.00;99.90;;;;;;5119985;28;20416;-46
2021/08/19 06:07:57;;;;;;;3.20;2.13;;;16.00;99.90;;;;;;5119411;28;20190;-46
2021/08/19 06:10:23;;;;;;;3.93;2.00;;;16.10;99.90;;;;;;5118752;28;20176;-46
2021/08/19 06:12:48;;;;;;;3.90;2.53;;;16.10;99.90;;;;;;5119102;28;20248;-46
2021/08/19 06:15:14;;;;;;;2.57;2.03;;;16.20;99.90;;;;;;5118572;28;20776;-46
2021/08/19 06:17:40;;;;;;;1.87;1.70;;;16.30;99.90;;;;;;5118156;28;20280;-46
2021/08/19 06:20:07;;;;;;;2.20;1.93;;;16.30;99.90;;;;;;5118869;28;20176;-45
2021/08/19 06:22:32;;;;;;;2.40;1.83;;;16.40;99.90;;;;;;5118641;28;20520;-46
2021/08/19 06:24:58;;;;;;;3.20;2.50;;;16.40;99.90;;;;;;5118443;28;20466;-46
2021/08/19 06:27:24;;;;;;;3.43;2.63;;;16.40;99.90;;;;;;5118863;28;20504;-46
2021/08/19 06:29:50;;;;;;;4.23;2.30;;;16.40;99.90;;;;;;5118770;28;20168;-46
2021/08/19 06:32:15;;;;;;;2.57;2.37;;;16.50;99.90;;;;;;5118082;28;20180;-46
2021/08/19 06:34:41;;;;;;;3.33;1.83;;;16.50;99.90;;;;;;5118253;28;20435;-46
2021/08/19 06:37:07;;;;;;;2.30;2.10;;;16.60;99.90;;;;;;5118745;28;20184;-46
2021/08/19 06:39:33;;;;;;;2.50;1.83;;;16.70;99.90;;;;;;5118836;28;20269;-46
2021/08/19 06:41:58;;;;;;;2.83;2.17;;;16.80;99.90;;;;;;5118374;28;20207;-46
2021/08/19 06:44:24;;;;;;;2.33;2.10;;;16.90;99.90;;;;;;5117968;28;20428;-46
2021/08/19 06:46:50;;;;;;;3.83;1.90;;;16.90;99.90;;;;;;5118292;28;20194;-45
2021/08/19 06:49:16;;;;;;;3.57;2.40;;;17.00;99.90;;;;;;5117889;28;20248;-46
2021/08/19 06:51:42;;;;;;;2.90;2.10;;;17.10;99.90;;;;;;5118444;28;20485;-46
2021/08/19 06:54:07;;;;;;;2.70;2.00;;;17.20;99.90;;;;;;5099773;28;20418;-46
2021/08/19 06:56:33;;;;;;;2.10;1.90;;;17.20;99.90;;;;;;5118845;28;20642;-46
2021/08/19 06:58:59;;;;;;;2.40;2.20;;;17.40;99.90;;;;;;5118368;28;20275;-46
2021/08/19 07:01:24;;;;;;;2.17;1.80;;;17.40;99.90;;;;;;5118585;28;20248;-46
2021/08/19 07:03:50;;;;;;;2.43;2.23;;;17.60;99.90;;;;;;5118929;28;20425;-46
2021/08/19 07:06:16;;;;;;;3.07;1.80;;;17.70;99.90;;;;;;5117042;28;20180;-46
2021/08/19 07:08:42;;;;;;;2.90;1.87;;;17.90;99.80;;;;;;5117776;28;20183;-46
2021/08/19 07:11:09;;;;;;;2.60;1.83;;;18.10;99.60;;;;;;5118120;28;20441;-46
2021/08/19 07:13:35;;;;;;;3.00;1.63;;;18.30;99.10;;;;;;5117960;28;20704;-46
2021/08/19 07:16:01;;;;;;;2.23;1.80;;;18.30;98.60;;;;;;5116992;28;20528;-46
2021/08/19 07:18:27;;;;;;;2.37;1.93;;;18.40;98.70;;;;;;5114754;28;20505;-46
2021/08/19 07:20:53;;;;;;;2.20;2.00;;;18.40;98.70;;;;;;5113730;28;20418;-46
2021/08/19 07:23:18;;;;;;;3.27;2.03;;;18.60;98.70;;;;;;5114686;28;20968;-46
2021/08/19 07:25:44;;;;;;;4.77;1.87;;;18.90;98.00;;;;;;5117822;28;20227;-46
2021/08/19 07:28:10;;;;;;;2.03;1.80;;;19.20;97.30;;;;;;5118060;28;20482;-46
2021/08/19 07:30:36;;;;;;;2.50;2.07;;;19.20;97.00;;;;;;5117493;28;20800;-46
2021/08/19 07:33:03;;;;;;;2.93;2.43;;;18.90;96.90;;;;;;5116818;28;20454;-46
2021/08/19 07:35:29;;;;;;;4.33;1.87;;;19.10;97.20;;;;;;5095021;28;20410;-46
2021/08/19 07:37:56;;;;;;;3.00;2.07;;;19.10;97.30;;;;;;5115546;28;20417;-47
2021/08/19 07:40:27;;;;;;;3.30;2.00;;;19.00;97.20;;;;;;5115609;28;20425;-46
2021/08/19 07:42:54;;;;;;;2.57;1.70;;;19.20;97.20;;;;;;5115041;28;20461;-47
2021/08/19 07:45:25;;;;;;;3.17;2.13;;;19.60;96.70;;;;;;5116025;28;20910;-46
2021/08/19 07:47:50;;;;;;;2.33;2.07;;;19.60;96.40;;;;;;5117247;28;20835;-46
2021/08/19 07:50:17;;;;;;;1.80;1.60;;;19.90;96.10;;;;;;5097034;28;20429;-47
2021/08/19 07:52:43;;;;;;;3.53;2.10;;;20.10;95.80;;;;;;5115861;28;20586;-47
2021/08/19 07:55:10;;;;;;;1.73;1.63;;;20.70;95.20;;;;;;5116233;28;20509;-46
2021/08/19 07:57:44;;;;;;;2.00;1.80;;;21.00;93.70;;;;;;5117556;28;20494;-46
2021/08/19 08:00:10;;;;;;;1.80;1.60;;;21.40;93.30;;;;;;5117289;28;20418;-46
2021/08/19 08:02:36;;;;;;;3.90;1.57;;;21.20;92.80;;;;;;5116999;28;20525;-46
2021/08/19 08:05:03;;;;;;;1.70;1.30;;;21.60;92.60;;;;;;5116375;28;20412;-46
2021/08/19 08:07:30;;;;;;;2.03;1.70;;;21.80;92.30;;;;;;5113156;28;20413;-46
2021/08/19 08:09:56;;;;;;;1.60;1.43;;;21.30;92.00;;;;;;5116582;28;20417;-47
2021/08/19 08:12:22;;;;;;;2.60;1.37;;;20.90;92.10;;;;;;5116303;28;20748;-46
2021/08/19 08:14:50;;;;;;;1.50;1.40;;;20.90;92.40;;;;;;5097583;28;20483;-46
2021/08/19 08:17:18;;;;;;;2.10;1.70;;;21.10;92.60;;;;;;5115744;28;20421;-46
2021/08/19 08:19:43;;;;;;;1.87;1.50;;;21.20;92.80;;;;;;5098478;28;20500;-47
2021/08/19 08:22:09;;;;;;;2.27;1.93;;;21.60;92.20;;;;;;5116225;28;20796;-46
2021/08/19 08:24:36;;;;;;;2.83;1.40;;;22.00;91.60;;;;;;5108893;28;20228;-46
2021/08/19 08:27:02;;;;;;;1.90;1.47;;;21.80;91.50;;;;;;5096976;28;20440;-46
2021/08/19 08:29:28;;;;;;;1.77;1.50;;;22.20;91.60;;;;;;5097102;28;20872;-46
2021/08/19 08:31:54;;;;;;;1.80;1.70;;;22.70;90.90;;;;;;5096423;28;20739;-46
2021/08/19 08:34:23;;;;;;;2.30;1.60;;;23.30;90.00;;;;;;5096325;28;20632;-46
2021/08/19 08:36:49;;;;;;;1.90;1.47;;;23.70;88.70;;;;;;5078660;28;20411;-46
2021/08/19 08:39:16;;;;;;;1.83;1.23;;;23.80;87.00;;;;;;5097140;28;20421;-46
2021/08/19 08:41:42;;;;;;;2.27;1.70;;;24.20;85.90;;;;;;5099085;28;20499;-46
2021/08/19 08:44:09;;;;;;;1.90;1.70;;;24.40;85.40;;;;;;5099801;28;20458;-46
2021/08/19 08:46:35;;;;;;;5.53;1.80;;;24.40;84.10;;;;;;5082461;28;20858;-46
2021/08/19 08:49:01;;;;;;;2.00;1.80;;;24.40;84.00;;;;;;5100202;28;20427;-46
2021/08/19 08:51:27;;;;;;;4.67;1.50;;;24.00;84.20;;;;;;5100228;28;20689;-46
2021/08/19 08:53:53;;;;;;;1.87;1.67;;;24.10;85.70;;;;;;5101069;28;20449;-46
2021/08/19 08:56:19;;;;;;;2.10;1.67;;;24.40;82.40;;;;;;5099554;28;20430;-46
2021/08/19 08:58:45;;;;;;;2.03;1.50;;;24.50;82.50;;;;;;5100546;28;20479;-46
2021/08/19 09:01:11;;;;;;;1.50;1.40;;;23.80;82.70;;;;;;5100191;28;20177;-46
2021/08/19 09:03:36;;;;;;;3.20;1.73;;;24.10;83.00;;;;;;5100742;28;20598;-46
2021/08/19 09:06:02;;;;;;;1.90;1.70;;;24.70;82.40;;;;;;5099752;28;20449;-46
2021/08/19 09:08:28;;;;;;;1.30;1.13;;;24.60;81.20;;;;;;5082165;28;20447;-46
2021/08/19 09:10:57;;;;;;;4.93;1.60;;;24.20;80.90;;;;;;5099969;28;20169;-46
2021/08/19 09:13:26;;;;;;;1.73;1.53;;;24.00;82.70;;;;;;5099301;28;20229;-46
2021/08/19 09:15:53;;;;;;;2.17;1.97;;;23.60;83.00;;;;;;5098207;28;20437;-46
2021/08/19 09:18:37;;;;;;;1.90;1.70;;;22.50;85.20;;;;;;5099894;28;20426;-45
2021/08/19 09:21:22;;;;;;;3.80;1.63;;;21.90;88.90;;;;;;5098988;28;20467;-45
2021/08/19 09:24:21;;;;;;;2.13;1.60;;;22.30;87.80;;;;;;5099574;28;20540;-45
2021/08/19 09:26:48;;;;;;;2.00;1.80;;;22.10;88.70;;;;;;5100440;28;20503;-45
2021/08/19 09:29:15;;;;;;;1.60;1.50;;;22.30;89.10;;;;;;5100029;28;20411;-45
2021/08/19 09:31:41;;;;;;;3.20;1.60;;;22.00;89.40;;;;;;5098793;28;20575;-45
2021/08/19 09:34:06;;;;;;;2.23;1.60;;;22.60;88.40;;;;;;5099176;28;20815;-45
2021/08/19 09:36:34;;;;;;;1.87;1.33;;;22.90;86.30;;;;;;5099453;28;20496;-45
2021/08/19 09:39:04;;;;;;;1.40;1.20;;;23.10;85.30;;;;;;5098933;28;20185;-45
2021/08/19 09:41:30;;;;;;;1.90;1.17;;;23.60;84.80;;;;;;5099535;28;20454;-45
2021/08/19 09:43:56;;;;;;;1.53;1.10;;;23.90;81.60;;;;;;5099549;28;20425;-45
2021/08/19 09:46:31;;;;;;;1.30;1.00;;;24.20;81.80;;;;;;5080881;28;20184;-45
2021/08/19 09:49:00;;;;;;;1.67;1.40;;;24.70;79.90;;;;;;5099435;28;20200;-45
2021/08/19 09:51:26;;;;;;;1.70;1.13;;;24.80;77.50;;;;;;5082300;28;20456;-46
2021/08/19 09:54:01;;;;;;;1.70;1.20;;;25.20;76.40;;;;;;5080841;28;20450;-45
2021/08/19 09:56:36;;;;;;;1.80;1.30;;;25.20;75.70;;;;;;5099307;28;20700;-46
2021/08/19 09:59:22;;;;;;;2.17;1.20;;;25.20;74.80;;;;;;5097405;28;20710;-45
2021/08/19 10:01:53;;;;;;;1.80;1.37;;;25.00;76.20;;;;;;5097712;28;20530;-45
2021/08/19 10:04:21;;;;;;;1.60;1.20;;;24.70;76.70;;;;;;5098550;28;20892;-45
2021/08/19 10:06:47;;;;;;;1.83;1.17;;;24.80;76.20;;;;;;5098641;28;20514;-45
2021/08/19 10:09:13;;;;;;;1.80;1.23;;;25.10;78.30;;;;;;5099356;28;20912;-46
2021/08/19 10:11:45;;;;;;;1.53;1.10;;;25.50;74.60;;;;;;5099253;28;20426;-45
2021/08/19 10:14:15;;;;;;;1.60;1.10;;;24.60;74.80;;;;;;5081047;28;20848;-45
2021/08/19 10:16:42;;;;;;;1.30;0.80;;;25.00;73.00;;;;;;5097608;28;20844;-46
2021/08/19 10:19:13;;;;;;;2.43;1.10;;;24.10;75.20;;;;;;5096424;28;20810;-45
2021/08/19 10:21:43;;;;;;;1.87;1.40;;;23.70;78.20;;;;;;5096710;28;20458;-46
2021/08/19 10:24:11;;;;;;;1.93;1.20;;;23.70;80.50;;;;;;5081103;28;20423;-46
2021/08/19 10:26:36;;;;;;;1.87;1.50;;;23.30;79.40;;;;;;5080916;28;20418;-45
2021/08/19 10:29:06;;;;;;;1.67;1.23;;;23.80;79.50;;;;;;5097695;28;20417;-45
2021/08/19 10:31:39;;;;;;;3.73;1.37;;;24.00;78.80;;;;;;5097135;28;20426;-45
2021/08/19 10:34:06;;;;;;;1.30;1.00;;;23.70;78.30;;;;;;5096326;28;20464;-45
2021/08/19 10:36:50;;;;;;;1.10;0.90;;;24.00;76.90;;;;;;5096494;28;20740;-46
2021/08/19 10:39:18;;;;;;;2.57;1.03;;;24.00;76.00;;;;;;5096740;28;20513;-45
2021/08/19 10:41:45;;;;;;;2.30;1.27;;;24.00;75.70;;;;;;5096561;28;20729;-46
2021/08/19 10:44:12;;;;;;;1.33;1.20;;;23.30;76.50;;;;;;5097328;28;20509;-46
2021/08/19 10:46:42;;;;;;;1.40;1.00;;;23.20;79.30;;;;;;5097343;28;20566;-45
2021/08/19 10:49:29;;;;;;;1.33;1.10;;;23.80;79.00;;;;;;5098523;28;20402;-45
2021/08/19 10:51:55;;;;;;;2.40;1.30;;;24.60;75.90;;;;;;5098215;28;20587;-46
2021/08/19 10:54:44;;;;;;;2.03;1.77;;;25.40;74.60;;;;;;5098146;28;20429;-46
2021/08/19 10:57:31;;;;;;;1.80;1.40;;;25.50;75.20;;;;;;5098425;28;20423;-45
2021/08/19 11:00:06;;;;;;;2.10;1.60;;;26.10;73.50;;;;;;5098862;28;20796;-46
2021/08/19 11:02:46;;;;;;;1.83;1.50;;;26.30;70.10;;;;;;5098250;28;20705;-46
2021/08/19 11:05:16;;;;;;;1.50;1.37;;;25.20;71.10;;;;;;5097793;28;20426;-46
2021/08/19 11:07:49;;;;;;;1.40;1.23;;;25.10;72.40;;;;;;5079659;28;20426;-46
2021/08/19 11:10:22;;;;;;;1.57;1.40;;;25.60;72.80;;;;;;5097746;28;20816;-45
2021/08/19 11:12:48;;;;;;;1.87;1.30;;;26.50;70.00;;;;;;5098072;28;20414;-46
2021/08/19 11:15:14;;;;;;;2.00;1.27;;;26.30;68.90;;;;;;5097831;28;20414;-46
2021/08/19 11:17:50;;;;;;;1.57;1.37;;;26.60;68.00;;;;;;5097630;28;20234;-46
2021/08/19 11:20:33;;;;;;;1.73;1.43;;;26.40;68.80;;;;;;5097633;28;20919;-46
2021/08/19 11:23:05;;;;;;;1.83;1.20;;;26.00;69.00;;;;;;5097535;28;20458;-46
2021/08/19 11:25:33;;;;;;;1.80;1.30;;;26.00;68.10;;;;;;5096762;28;20750;-45
2021/08/19 11:28:13;;;;;;;1.27;1.10;;;25.70;69.20;;;;;;5097053;28;20718;-46
2021/08/19 11:30:42;;;;;;;1.97;1.13;;;25.90;68.70;;;;;;5097280;28;20727;-46
2021/08/19 11:33:25;;;;;;;2.10;1.50;;;25.90;70.20;;;;;;5096889;28;20458;-46
2021/08/19 11:35:53;;;;;;;1.83;1.07;;;24.80;72.50;;;;;;5079411;28;20418;-46
2021/08/19 11:38:22;;;;;;;1.60;1.20;;;24.90;73.20;;;;;;5096291;28;20499;-46
2021/08/19 11:40:49;;;;;;;2.03;1.40;;;24.80;71.30;;;;;;5096909;28;20414;-46
2021/08/19 11:43:26;;;;;;;1.87;1.30;;;24.10;71.80;;;;;;5095594;28;20539;-45
2021/08/19 11:46:02;;;;;;;1.43;1.07;;;23.70;74.20;;;;;;5095837;28;20434;-46
2021/08/19 11:48:28;;;;;;;1.20;0.80;;;23.30;74.60;;;;;;5096778;28;20429;-46
2021/08/19 11:50:56;;;;;;;1.30;0.90;;;23.50;75.00;;;;;;5097630;28;20471;-46
2021/08/19 11:53:22;;;;;;;2.10;1.60;;;23.60;73.20;;;;;;5079659;28;20187;-45
2021/08/19 11:55:48;;;;;;;1.90;1.27;;;23.50;72.80;;;;;;5097630;28;20712;-45
2021/08/19 11:58:20;;;;;;;1.43;1.20;;;23.40;72.80;;;;;;5096822;28;20422;-46
2021/08/19 12:01:10;;;;;;;1.70;1.20;;;24.10;70.90;;;;;;5060688;28;20446;-46
2021/08/19 12:03:40;;;;;;;2.07;0.93;;;24.40;71.80;;;;;;5112505;28;20461;-46
2021/08/19 12:06:09;;;;;;;1.60;1.00;;;24.90;70.10;;;;;;5098659;28;20426;-46
2021/08/19 12:08:37;;;;;;;1.70;1.30;;;25.50;68.90;;;;;;5117063;28;20413;-46
2021/08/19 12:11:05;;;;;;;2.03;1.20;;;25.70;68.10;;;;;;5117234;28;20413;-46
2021/08/19 12:13:33;;;;;;;1.37;1.27;;;26.80;67.60;;;;;;5117947;28;20420;-45
2021/08/19 12:15:59;;;;;;;1.50;1.00;;;27.20;62.90;;;;;;5100358;28;20429;-46
2021/08/19 12:18:26;;;;;;;3.70;1.00;;;26.40;62.70;;;;;;5121252;28;20417;-46
2021/08/19 12:21:15;;;;;;;1.53;1.20;;;26.10;63.20;;;;;;5120135;28;20439;-46
2021/08/19 12:23:41;;;;;;;1.80;1.50;;;25.60;65.90;;;;;;5120041;28;20433;-45
2021/08/19 12:26:08;;;;;;;1.83;1.27;;;25.10;65.40;;;;;;5120861;28;20469;-45
2021/08/19 12:28:34;;;;;;;1.50;1.30;;;24.70;68.50;;;;;;5121297;28;20513;-45
2021/08/19 12:31:03;;;;;;;2.17;1.10;;;25.00;68.00;;;;;;5120705;28;20417;-46
2021/08/19 12:33:39;;;;;;;2.10;1.50;;;24.70;69.00;;;;;;5090264;28;20878;-46
2021/08/19 12:36:16;;;;;;;2.00;1.50;;;25.00;68.70;;;;;;5078670;28;20427;-46
2021/08/19 12:38:43;;;;;;;2.30;1.73;;;25.20;67.00;;;;;;5078073;28;20691;-46
2021/08/19 12:41:17;;;;;;;2.10;1.47;;;24.70;67.30;;;;;;5078544;28;20469;-46
2021/08/19 12:43:44;;;;;;;2.00;1.73;;;25.10;67.10;;;;;;5079553;28;20556;-46
2021/08/19 12:46:14;;;;;;;1.67;1.20;;;24.70;67.90;;;;;;5078179;28;20671;-44
2021/08/19 12:48:40;;;;;;;1.77;1.53;;;24.50;68.70;;;;;;5078756;28;20729;-46
2021/08/19 12:51:27;;;;;;;1.73;1.30;;;24.70;68.80;;;;;;5079916;28;20484;-46